Time;durP1;ratioP1;P1;durP2;ratioP2;P2;SDS_P1;SDS_P2;PMS_P1;PMS_P2;Temp;Humidity;BMP_temperature;BMP_pressure;BME280_temperature;BME280_humidity;BME280_pressure;Samples;Min_cycle;Max_cycle;Signal;HPM_P1;HPM_P2
2023/03/20 00:02:20;;;;;;;14.13;6.18;;;9.70;94.40;;;;;;4998866;28;20133;-86
2023/03/20 00:04:53;;;;;;;12.68;5.15;;;9.70;94.40;;;;;;4998405;28;20038;-86
2023/03/20 00:07:26;;;;;;;14.30;6.95;;;9.70;94.50;;;;;;4985662;28;20575;-86
2023/03/20 00:09:58;;;;;;;14.07;6.65;;;9.60;94.50;;;;;;4998599;28;20138;-86
2023/03/20 00:12:56;;;;;;;13.60;5.57;;;9.60;94.50;;;;;;4982504;28;20049;-86
2023/03/20 00:15:42;;;;;;;13.20;6.07;;;9.60;94.40;;;;;;5003613;28;20045;-87
2023/03/20 00:18:18;;;;;;;13.68;6.72;;;9.60;94.50;;;;;;4982215;28;20046;-87
2023/03/20 00:20:50;;;;;;;13.18;5.95;;;9.60;94.50;;;;;;4998541;28;20489;-86
2023/03/20 00:23:20;;;;;;;13.60;6.37;;;9.60;94.50;;;;;;4997883;28;20046;-86
2023/03/20 00:25:51;;;;;;;11.98;6.20;;;9.60;94.50;;;;;;4997852;28;20296;-86
2023/03/20 00:28:39;;;;;;;12.98;6.60;;;9.60;94.50;;;;;;5001095;28;20375;-86
2023/03/20 00:31:29;;;;;;;13.05;5.25;;;9.60;94.50;;;;;;4998215;28;20073;-86
2023/03/20 00:34:04;;;;;;;12.43;6.65;;;9.60;94.50;;;;;;4991127;28;20069;-86
2023/03/20 00:36:34;;;;;;;14.05;6.70;;;9.50;94.50;;;;;;5002785;28;20046;-87
2023/03/20 00:39:07;;;;;;;13.73;6.50;;;9.50;94.60;;;;;;4996879;28;20065;-86
2023/03/20 00:41:48;;;;;;;13.43;6.05;;;9.50;94.60;;;;;;4976784;28;20049;-86
2023/03/20 00:44:31;;;;;;;11.13;5.78;;;9.50;94.60;;;;;;4991099;28;20070;-86
2023/03/20 00:47:22;;;;;;;9.85;5.05;;;9.50;94.60;;;;;;4994208;28;20108;-86
2023/03/20 00:50:06;;;;;;;11.68;7.00;;;9.50;94.60;;;;;;5013990;28;20046;-86
2023/03/20 00:52:38;;;;;;;11.23;5.65;;;9.50;94.60;;;;;;5013672;28;20108;-86
2023/03/20 00:55:10;;;;;;;12.48;6.00;;;9.50;94.60;;;;;;4981810;28;20092;-86
2023/03/20 00:58:00;;;;;;;12.95;6.60;;;9.50;94.60;;;;;;5010770;28;20053;-87
2023/03/20 01:00:36;;;;;;;14.07;7.05;;;9.50;94.50;;;;;;5012983;28;20046;-86
2023/03/20 01:03:21;;;;;;;11.50;6.18;;;9.50;94.50;;;;;;4996951;28;20125;-86
2023/03/20 01:05:59;;;;;;;9.55;5.47;;;9.40;94.50;;;;;;4996937;28;20046;-86
2023/03/20 01:08:29;;;;;;;8.93;5.22;;;9.40;94.50;;;;;;4991261;28;20509;-86
2023/03/20 01:11:01;;;;;;;10.30;5.88;;;9.50;94.50;;;;;;4997668;28;20418;-86
2023/03/20 01:13:31;;;;;;;9.57;5.75;;;9.50;94.50;;;;;;4996837;28;20037;-86
2023/03/20 01:16:04;;;;;;;11.95;6.90;;;9.50;94.50;;;;;;4984112;28;20046;-86
2023/03/20 01:18:31;;;;;;;14.32;7.85;;;9.50;94.50;;;;;;4977734;28;20050;-86
2023/03/20 01:21:17;;;;;;;13.38;7.03;;;9.50;94.50;;;;;;4993430;28;20126;-86
2023/03/20 01:23:44;;;;;;;15.85;8.32;;;9.50;94.50;;;;;;4995520;28;20041;-86
2023/03/20 01:26:29;;;;;;;15.95;8.23;;;9.50;94.50;;;;;;4997442;28;20625;-87
2023/03/20 01:28:56;;;;;;;17.27;10.02;;;9.50;94.50;;;;;;4985607;28;20077;-86
2023/03/20 01:31:24;;;;;;;17.75;10.20;;;9.40;94.50;;;;;;4996878;28;20046;-86
2023/03/20 01:33:57;;;;;;;20.40;12.02;;;9.40;94.60;;;;;;4996363;28;20484;-86
2023/03/20 01:36:36;;;;;;;20.80;11.00;;;9.40;94.60;;;;;;4987114;28;20088;-86
2023/03/20 01:39:10;;;;;;;21.13;10.38;;;9.40;94.70;;;;;;4993340;28;20035;-87
2023/03/20 01:41:39;;;;;;;18.48;9.48;;;9.30;94.70;;;;;;4991832;28;20124;-86
2023/03/20 01:44:21;;;;;;;17.75;9.77;;;9.30;94.70;;;;;;4993105;28;20128;-86
2023/03/20 01:46:56;;;;;;;17.98;9.02;;;9.30;94.70;;;;;;4981593;28;20053;-86
2023/03/20 01:49:27;;;;;;;17.42;8.88;;;9.30;94.70;;;;;;4980359;28;20052;-86
2023/03/20 01:51:58;;;;;;;22.27;9.85;;;9.30;94.70;;;;;;4997248;28;20065;-86
2023/03/20 01:54:39;;;;;;;18.48;9.15;;;9.30;94.70;;;;;;4971734;28;20062;-86
2023/03/20 01:57:15;;;;;;;15.32;8.93;;;9.20;94.70;;;;;;4996214;28;20805;-86
2023/03/20 01:59:54;;;;;;;15.43;7.85;;;9.20;94.70;;;;;;4980661;28;20069;-87
2023/03/20 02:02:32;;;;;;;18.02;8.73;;;9.20;94.70;;;;;;4996381;28;20042;-86
2023/03/20 02:05:13;;;;;;;15.90;7.50;;;9.20;94.70;;;;;;4981131;28;20445;-86
2023/03/20 02:07:53;;;;;;;17.38;7.47;;;9.20;94.70;;;;;;4979911;28;20054;-86
2023/03/20 02:10:25;;;;;;;18.10;8.45;;;9.20;94.70;;;;;;4996271;28;20457;-87
2023/03/20 02:13:10;;;;;;;14.20;6.55;;;9.20;94.70;;;;;;4980386;28;20052;-87
2023/03/20 02:16:19;;;;;;;14.07;7.32;;;9.20;94.70;;;;;;4989307;28;20042;-86
2023/03/20 02:19:16;;;;;;;13.45;6.63;;;9.20;94.60;;;;;;4941944;28;20045;-85
2023/03/20 02:22:05;;;;;;;12.38;5.90;;;9.20;94.70;;;;;;4992548;28;20046;-86
2023/03/20 02:24:54;;;;;;;14.48;6.60;;;9.20;94.60;;;;;;4995980;28;20069;-86
2023/03/20 02:28:15;;;;;;;11.75;6.07;;;9.20;94.60;;;;;;5002882;28;20076;-87
2023/03/20 02:31:25;;;;;;;9.30;4.95;;;9.10;94.50;;;;;;4977225;28;20061;-86
2023/03/20 02:34:19;;;;;;;9.52;4.90;;;9.10;94.50;;;;;;4993140;28;20506;-86
2023/03/20 02:37:31;;;;;;;9.32;4.55;;;9.10;94.50;;;;;;4978844;28;20061;-86
2023/03/20 02:40:20;;;;;;;8.80;3.63;;;9.10;94.40;;;;;;4988467;28;20052;-87
2023/03/20 02:42:53;;;;;;;7.43;4.28;;;9.10;94.40;;;;;;5010534;28;20046;-87
2023/03/20 02:45:53;;;;;;;9.02;3.90;;;9.10;94.30;;;;;;4996409;28;20409;-87
2023/03/20 02:48:55;;;;;;;6.13;3.03;;;9.10;94.10;;;;;;4996535;28;20049;-87
2023/03/20 02:51:39;;;;;;;5.90;2.97;;;9.10;94.00;;;;;;4972922;28;20054;-87
2023/03/20 02:54:16;;;;;;;5.43;2.35;;;9.10;93.80;;;;;;4979706;28;20046;-86
2023/03/20 02:57:07;;;;;;;8.40;3.35;;;9.10;94.00;;;;;;5011988;28;20570;-87
2023/03/20 02:59:45;;;;;;;6.57;2.25;;;9.10;93.60;;;;;;4971424;28;20062;-87
2023/03/20 03:02:42;;;;;;;4.43;1.70;;;9.10;93.50;;;;;;4979875;28;20045;-87
2023/03/20 03:05:24;;;;;;;4.40;1.70;;;9.10;93.40;;;;;;4995987;28;20050;-87
2023/03/20 03:07:58;;;;;;;6.28;1.73;;;9.10;93.40;;;;;;4980100;28;20050;-87
2023/03/20 03:10:52;;;;;;;5.00;1.92;;;9.10;93.10;;;;;;4992642;28;20054;-88
2023/03/20 03:13:30;;;;;;;6.13;1.65;;;9.10;93.00;;;;;;4982161;28;20046;-87
2023/03/20 03:16:12;;;;;;;4.70;1.60;;;9.10;92.90;;;;;;4979471;28;20046;-87
2023/03/20 03:18:41;;;;;;;3.13;1.30;;;9.10;92.90;;;;;;4976244;28;20034;-87
2023/03/20 03:21:16;;;;;;;7.25;1.95;;;9.10;92.90;;;;;;5006599;28;20050;-87
2023/03/20 03:23:48;;;;;;;4.75;1.55;;;9.10;92.90;;;;;;4996057;28;20056;-86
2023/03/20 03:26:26;;;;;;;6.28;2.30;;;9.10;92.90;;;;;;5009981;28;20042;-87
2023/03/20 03:29:10;;;;;;;5.75;1.90;;;9.10;92.80;;;;;;4983729;28;20053;-87
2023/03/20 03:31:38;;;;;;;6.68;2.47;;;9.10;92.80;;;;;;4999031;28;20048;-87
2023/03/20 03:34:14;;;;;;;3.55;1.40;;;9.00;92.80;;;;;;4983316;28;20050;-87
2023/03/20 03:37:04;;;;;;;3.67;1.42;;;9.00;92.80;;;;;;4982423;28;20065;-87
2023/03/20 03:39:48;;;;;;;4.88;1.50;;;9.00;92.90;;;;;;4995465;28;20042;-87
2023/03/20 03:42:50;;;;;;;4.75;1.40;;;9.00;93.00;;;;;;5008113;28;20442;-87
2023/03/20 03:45:26;;;;;;;4.57;2.00;;;8.90;93.00;;;;;;4998367;28;20077;-87
2023/03/20 03:48:33;;;;;;;3.28;1.52;;;8.90;93.40;;;;;;4997806;28;20116;-87
2023/03/20 03:51:13;;;;;;;4.43;1.83;;;8.80;93.10;;;;;;4961430;28;20490;-87
2023/03/20 03:54:07;;;;;;;4.53;1.67;;;8.80;93.10;;;;;;5001363;28;20050;-86
2023/03/20 03:56:43;;;;;;;4.45;2.17;;;8.80;93.10;;;;;;4982609;28;20045;-86
2023/03/20 03:59:36;;;;;;;5.22;2.05;;;8.80;93.10;;;;;;4988533;28;20036;-87
2023/03/20 04:02:10;;;;;;;5.68;2.13;;;8.80;93.10;;;;;;5013508;28;20046;-87
2023/03/20 04:04:45;;;;;;;6.05;2.90;;;8.70;93.20;;;;;;4993851;28;20487;-87
2023/03/20 04:07:22;;;;;;;6.00;3.17;;;8.70;93.20;;;;;;4986907;28;20084;-87
2023/03/20 04:09:52;;;;;;;8.02;3.67;;;8.70;93.20;;;;;;4982509;28;20058;-87
2023/03/20 04:12:40;;;;;;;9.13;4.93;;;8.70;93.20;;;;;;4982304;28;20054;-86
2023/03/20 04:15:11;;;;;;;7.60;3.58;;;8.60;93.10;;;;;;4985733;28;20046;-86
2023/03/20 04:17:42;;;;;;;7.63;3.15;;;8.60;93.20;;;;;;4998088;28;20524;-86
2023/03/20 04:20:15;;;;;;;6.30;2.85;;;8.60;93.30;;;;;;5002860;28;20052;-86
2023/03/20 04:22:47;;;;;;;8.32;3.47;;;8.60;93.30;;;;;;4967043;28;20045;-86
2023/03/20 04:25:22;;;;;;;6.68;3.20;;;8.50;93.30;;;;;;4981571;28;20487;-86
2023/03/20 04:27:56;;;;;;;9.30;3.75;;;8.50;93.30;;;;;;5013826;28;20498;-87
2023/03/20 04:30:58;;;;;;;7.40;3.55;;;8.50;93.30;;;;;;4997474;28;20431;-86
2023/03/20 04:33:47;;;;;;;7.45;3.90;;;8.50;93.30;;;;;;4994586;28;20060;-86
2023/03/20 04:36:32;;;;;;;9.55;5.32;;;8.40;93.40;;;;;;4992605;28;20193;-86
2023/03/20 04:39:05;;;;;;;12.10;6.00;;;8.30;93.40;;;;;;4990295;28;20136;-86
2023/03/20 04:41:33;;;;;;;13.48;6.53;;;8.30;93.40;;;;;;4979814;28;20045;-87
2023/03/20 04:44:06;;;;;;;13.40;6.25;;;8.20;93.50;;;;;;4981740;28;20045;-86
2023/03/20 04:46:34;;;;;;;16.90;7.07;;;8.20;93.50;;;;;;4963009;28;20062;-87
2023/03/20 04:49:07;;;;;;;;;;;8.20;93.60;;;;;;4982518;28;20046;-87
2023/03/20 04:51:39;;;;;;;12.23;6.07;;;8.20;93.60;;;;;;4971468;28;20398;-87
2023/03/20 04:54:12;;;;;;;10.32;5.25;;;8.20;93.60;;;;;;4984452;28;20119;-87
2023/03/20 04:56:44;;;;;;;11.77;6.05;;;8.20;93.60;;;;;;4965950;28;20101;-87
2023/03/20 04:59:20;;;;;;;12.13;5.65;;;8.20;93.60;;;;;;4997348;28;20038;-87
2023/03/20 05:01:49;;;;;;;13.23;6.10;;;8.20;93.60;;;;;;4981419;28;20105;-86
2023/03/20 05:04:25;;;;;;;11.75;5.85;;;8.20;93.60;;;;;;5012100;28;20045;-87
2023/03/20 05:06:55;;;;;;;11.77;5.40;;;8.20;93.60;;;;;;4981433;28;20494;-87
2023/03/20 05:09:28;;;;;;;9.85;5.32;;;8.20;93.60;;;;;;4984919;28;20049;-87
2023/03/20 05:12:00;;;;;;;11.85;5.47;;;8.30;93.60;;;;;;4981432;28;20046;-87
2023/03/20 05:15:00;;;;;;;11.10;6.40;;;8.20;93.60;;;;;;4997557;28;20053;-87
2023/03/20 05:17:49;;;;;;;12.82;5.90;;;8.30;93.60;;;;;;4999840;28;20053;-87
2023/03/20 05:20:50;;;;;;;13.20;5.93;;;8.20;93.50;;;;;;4985960;28;20046;-87
2023/03/20 05:23:27;;;;;;;9.27;4.85;;;8.20;93.50;;;;;;4977021;28;20085;-86
2023/03/20 05:26:15;;;;;;;9.50;4.80;;;8.20;93.50;;;;;;4996655;28;20073;-85
2023/03/20 05:29:13;;;;;;;12.05;4.93;;;8.20;93.50;;;;;;4983311;28;20066;-86
2023/03/20 05:31:59;;;;;;;10.05;4.78;;;8.20;93.50;;;;;;4999288;28;20518;-87
2023/03/20 05:34:55;;;;;;;10.85;4.75;;;8.20;93.40;;;;;;4986443;28;20049;-86
2023/03/20 05:37:34;;;;;;;9.00;4.38;;;8.30;93.40;;;;;;4984035;28;20049;-87
2023/03/20 05:40:13;;;;;;;10.80;5.60;;;8.20;93.40;;;;;;4981652;28;21335;-87
2023/03/20 05:42:40;;;;;;;10.45;4.40;;;8.20;93.30;;;;;;4996874;28;20042;-87
2023/03/20 05:45:33;;;;;;;12.45;5.70;;;8.20;93.30;;;;;;4980934;28;20046;-86
2023/03/20 05:48:20;;;;;;;12.52;6.25;;;8.20;93.30;;;;;;4996141;28;20108;-87
2023/03/20 05:51:09;;;;;;;14.48;6.65;;;8.20;93.20;;;;;;5004644;28;20072;-86
2023/03/20 05:53:56;;;;;;;13.45;6.50;;;8.20;93.10;;;;;;4978806;28;20411;-86
2023/03/20 05:56:23;;;;;;;10.32;5.32;;;8.20;93.10;;;;;;5019407;28;20120;-87
2023/03/20 05:59:19;;;;;;;10.00;5.75;;;8.20;93.10;;;;;;4986339;28;20064;-86
2023/03/20 06:02:00;;;;;;;9.68;4.47;;;8.10;93.10;;;;;;4996866;28;20057;-87
2023/03/20 06:04:33;;;;;;;8.02;4.07;;;8.20;93.10;;;;;;4965559;28;20046;-86
2023/03/20 06:07:18;;;;;;;7.53;3.65;;;8.20;93.20;;;;;;4996132;28;20112;-86
2023/03/20 06:09:58;;;;;;;9.23;4.90;;;8.20;93.20;;;;;;4997537;28;20053;-87
2023/03/20 06:12:38;;;;;;;7.60;3.25;;;8.20;93.20;;;;;;4990186;28;20070;-86
2023/03/20 06:15:09;;;;;;;8.90;3.63;;;8.20;93.10;;;;;;4967941;28;20129;-87
2023/03/20 06:17:46;;;;;;;8.00;3.25;;;8.30;93.10;;;;;;4997233;28;20047;-86
2023/03/20 06:20:17;;;;;;;8.18;4.05;;;8.30;93.10;;;;;;4985597;28;20042;-86
2023/03/20 06:22:52;;;;;;;11.52;4.88;;;8.30;93.00;;;;;;4996160;28;20042;-86
2023/03/20 06:25:24;;;;;;;11.10;4.43;;;8.30;92.80;;;;;;4995983;28;20053;-86
2023/03/20 06:27:51;;;;;;;8.50;4.03;;;8.40;92.90;;;;;;4980121;28;20557;-86
2023/03/20 06:30:29;;;;;;;11.20;5.03;;;8.40;92.80;;;;;;4997062;28;20046;-86
2023/03/20 06:33:02;;;;;;;10.23;4.78;;;8.40;92.70;;;;;;4980312;28;20132;-86
2023/03/20 06:35:46;;;;;;;7.13;3.30;;;8.40;92.70;;;;;;4972450;28;20050;-86
2023/03/20 06:38:13;;;;;;;7.70;3.63;;;8.50;92.70;;;;;;4975915;28;20065;-85
2023/03/20 06:40:44;;;;;;;9.38;4.38;;;8.50;92.70;;;;;;4970885;28;20129;-86
2023/03/20 06:43:16;;;;;;;12.20;4.82;;;8.60;92.70;;;;;;4967499;28;20050;-87
2023/03/20 06:45:49;;;;;;;10.15;5.40;;;8.60;92.60;;;;;;4977386;28;20506;-87
2023/03/20 06:48:22;;;;;;;10.13;4.97;;;8.60;92.50;;;;;;4976387;28;20153;-87
2023/03/20 06:50:51;;;;;;;12.55;6.28;;;8.60;92.40;;;;;;4996658;28;20048;-87
2023/03/20 06:53:25;;;;;;;11.40;5.18;;;8.60;92.40;;;;;;4985472;28;20054;-88
2023/03/20 06:56:06;;;;;;;10.43;5.38;;;8.60;92.40;;;;;;4993643;28;20144;-88
2023/03/20 06:58:34;;;;;;;12.90;6.00;;;8.60;92.40;;;;;;5015516;28;20046;-87
2023/03/20 07:01:19;;;;;;;12.02;4.90;;;8.60;92.40;;;;;;4981307;28;20046;-88
2023/03/20 07:03:49;;;;;;;11.88;6.13;;;8.60;92.40;;;;;;4983407;28;20137;-87
2023/03/20 07:06:25;;;;;;;11.88;6.03;;;8.50;92.40;;;;;;5000068;28;20133;-88
2023/03/20 07:08:55;;;;;;;9.80;5.18;;;8.50;92.40;;;;;;4964281;28;20101;-88
2023/03/20 07:11:28;;;;;;;12.75;6.65;;;8.60;92.40;;;;;;4964513;28;20053;-88
2023/03/20 07:13:58;;;;;;;14.55;6.85;;;8.60;92.30;;;;;;4974328;28;20073;-87
2023/03/20 07:16:37;;;;;;;13.02;6.82;;;8.60;92.30;;;;;;4999701;28;20405;-88
2023/03/20 07:19:10;;;;;;;11.43;6.47;;;8.60;92.30;;;;;;4978649;28;20125;-88
2023/03/20 07:21:41;;;;;;;10.07;5.13;;;8.60;92.30;;;;;;4994981;28;20483;-88
2023/03/20 07:24:11;;;;;;;11.23;5.55;;;8.60;92.30;;;;;;4986639;28;20057;-88
2023/03/20 07:26:45;;;;;;;10.25;5.20;;;8.60;92.20;;;;;;4981208;28;20046;-88
2023/03/20 07:29:15;;;;;;;10.73;4.78;;;8.70;92.20;;;;;;4984506;28;20041;-88
2023/03/20 07:31:51;;;;;;;10.35;5.40;;;8.70;92.20;;;;;;5003409;28;20041;-88
2023/03/20 07:34:26;;;;;;;14.23;5.95;;;8.80;92.20;;;;;;4992308;28;20045;-88
2023/03/20 07:36:58;;;;;;;11.75;5.57;;;8.80;92.10;;;;;;4999497;28;20050;-88
2023/03/20 07:39:26;;;;;;;13.57;6.15;;;8.80;92.00;;;;;;5008155;28;20045;-86
2023/03/20 07:42:14;;;;;;;11.68;6.07;;;8.80;92.00;;;;;;4977899;28;20393;-86
2023/03/20 07:44:50;;;;;;;12.85;6.05;;;8.70;92.00;;;;;;4992725;28;20034;-86
2023/03/20 07:47:20;;;;;;;12.32;5.60;;;8.80;92.00;;;;;;4978951;28;20081;-86
2023/03/20 07:49:48;;;;;;;10.65;5.15;;;8.80;92.10;;;;;;4990670;28;20046;-86
2023/03/20 07:52:20;;;;;;;12.60;6.07;;;8.80;92.00;;;;;;4982290;28;20414;-86
2023/03/20 07:54:48;;;;;;;11.20;5.20;;;8.80;92.00;;;;;;4996703;28;20046;-86
2023/03/20 07:57:17;;;;;;;13.73;6.40;;;8.80;91.90;;;;;;4983221;28;20513;-86
2023/03/20 07:59:52;;;;;;;11.35;6.45;;;8.80;92.10;;;;;;4996666;28;20096;-86
2023/03/20 08:02:39;;;;;;;14.30;7.18;;;8.80;91.80;;;;;;5014920;28;20038;-86
2023/03/20 08:05:08;;;;;;;11.85;5.72;;;8.80;91.70;;;;;;4982338;28;20070;-86
2023/03/20 08:07:38;;;;;;;14.40;5.72;;;8.80;91.70;;;;;;4976999;28;20072;-85
2023/03/20 08:10:12;;;;;;;13.50;6.32;;;8.80;91.70;;;;;;4978840;28;20042;-85
2023/03/20 08:12:44;;;;;;;9.48;4.75;;;8.80;91.70;;;;;;4982543;28;20046;-86
2023/03/20 08:15:16;;;;;;;9.90;5.57;;;8.90;91.70;;;;;;4994395;28;20144;-86
2023/03/20 08:17:44;;;;;;;;;;;8.90;91.60;;;;;;4982369;28;20049;-85
2023/03/20 08:20:15;;;;;;;9.63;5.05;;;8.90;91.60;;;;;;5008200;28;20327;-85
2023/03/20 08:22:49;;;;;;;12.82;5.35;;;8.90;91.60;;;;;;4997696;28;20049;-86
2023/03/20 08:25:16;;;;;;;11.98;4.88;;;8.90;91.50;;;;;;4981030;28;20058;-86
2023/03/20 08:27:45;;;;;;;9.50;5.10;;;8.90;91.50;;;;;;4990315;28;20046;-86
2023/03/20 08:30:22;;;;;;;9.60;4.28;;;9.00;91.50;;;;;;4997890;28;20490;-86
2023/03/20 08:32:50;;;;;;;8.63;4.93;;;9.00;91.40;;;;;;4997889;28;20042;-86
2023/03/20 08:35:17;;;;;;;7.30;3.95;;;9.00;91.40;;;;;;5016325;28;20057;-85
2023/03/20 08:38:02;;;;;;;7.78;3.80;;;9.00;91.40;;;;;;5003671;28;20070;-86
2023/03/20 08:40:39;;;;;;;10.00;4.60;;;9.10;91.40;;;;;;4997177;28;20069;-86
2023/03/20 08:43:06;;;;;;;9.27;4.65;;;9.10;91.30;;;;;;5010609;28;20073;-86
2023/03/20 08:45:34;;;;;;;7.22;4.15;;;9.10;91.20;;;;;;4997820;28;20042;-87
2023/03/20 08:48:06;;;;;;;9.80;4.80;;;9.20;91.20;;;;;;4997891;28;20046;-88
2023/03/20 08:50:37;;;;;;;;;;;9.20;91.10;;;;;;4982764;28;20490;-87
2023/03/20 08:53:09;;;;;;;7.85;4.28;;;9.10;91.00;;;;;;4997789;28;20439;-88
2023/03/20 08:55:48;;;;;;;9.80;4.22;;;9.20;91.00;;;;;;4997977;28;20053;-87
2023/03/20 08:58:21;;;;;;;8.70;4.63;;;9.30;90.80;;;;;;4994961;28;20043;-87
2023/03/20 09:00:54;;;;;;;8.38;4.35;;;9.20;90.70;;;;;;4994916;28;20042;-88
2023/03/20 09:03:21;;;;;;;11.55;5.10;;;9.20;90.70;;;;;;4997665;28;20065;-87
2023/03/20 09:05:53;;;;;;;11.77;4.38;;;9.30;90.60;;;;;;4997588;28;20049;-87
2023/03/20 09:08:31;;;;;;;7.10;3.83;;;9.30;90.70;;;;;;4982217;28;20053;-88
2023/03/20 09:10:59;;;;;;;11.13;4.50;;;9.40;90.60;;;;;;4993731;28;20086;-87
2023/03/20 09:13:33;;;;;;;6.57;3.45;;;9.40;90.40;;;;;;4968320;28;20050;-87
2023/03/20 09:16:00;;;;;;;8.52;3.67;;;9.50;90.40;;;;;;4980753;28;20081;-86
2023/03/20 09:18:30;;;;;;;8.68;3.03;;;9.60;90.40;;;;;;4980997;28;20052;-86
2023/03/20 09:21:00;;;;;;;7.85;2.92;;;9.60;90.30;;;;;;4987769;28;20037;-85
2023/03/20 09:23:30;;;;;;;12.63;4.55;;;9.70;90.20;;;;;;4989417;28;20061;-86
2023/03/20 09:26:01;;;;;;;9.30;4.05;;;9.80;90.00;;;;;;4981921;28;20046;-85
2023/03/20 09:28:28;;;;;;;10.25;4.22;;;9.80;89.40;;;;;;4980973;28;20045;-85
2023/03/20 09:30:56;;;;;;;9.20;3.38;;;9.80;88.90;;;;;;4992780;28;20052;-85
2023/03/20 09:33:30;;;;;;;7.32;3.38;;;9.90;89.10;;;;;;5011862;28;20046;-85
2023/03/20 09:36:00;;;;;;;8.20;2.97;;;9.90;88.70;;;;;;4996427;28;20096;-85
2023/03/20 09:38:31;;;;;;;6.40;3.13;;;10.00;88.50;;;;;;4992600;28;20068;-86
2023/03/20 09:41:03;;;;;;;8.98;3.75;;;10.00;87.90;;;;;;4970204;28;20100;-86
2023/03/20 09:43:54;;;;;;;10.27;3.67;;;10.00;87.50;;;;;;4996165;28;20077;-84
2023/03/20 09:46:58;;;;;;;8.25;4.20;;;10.10;87.00;;;;;;4996366;28;20634;-84
2023/03/20 09:50:21;;;;;;;7.80;3.47;;;10.00;86.40;;;;;;5004698;28;20391;-84
2023/03/20 09:52:56;;;;;;;7.28;2.78;;;10.10;86.40;;;;;;5001806;28;20054;-85
2023/03/20 09:55:31;;;;;;;11.15;3.90;;;10.10;86.50;;;;;;4980270;28;20104;-86
2023/03/20 09:58:15;;;;;;;11.18;3.80;;;10.10;85.50;;;;;;4990256;28;20537;-86
2023/03/20 10:00:45;;;;;;;6.85;2.63;;;10.00;85.50;;;;;;4996218;28;20501;-85
2023/03/20 10:03:39;;;;;;;8.55;3.58;;;10.00;86.10;;;;;;4981497;28;20078;-86
2023/03/20 10:06:12;;;;;;;9.07;3.47;;;10.00;86.20;;;;;;4980275;28;20056;-86
2023/03/20 10:08:46;;;;;;;9.52;3.50;;;9.90;86.60;;;;;;4980801;28;20053;-85
2023/03/20 10:11:40;;;;;;;11.07;3.70;;;9.90;87.00;;;;;;4996118;28;20479;-86
2023/03/20 10:14:35;;;;;;;10.00;3.47;;;9.90;87.60;;;;;;4972415;28;20415;-85
2023/03/20 10:17:20;;;;;;;8.88;3.67;;;9.70;88.30;;;;;;4976601;28;20050;-85
2023/03/20 10:20:09;;;;;;;12.50;5.00;;;9.60;89.20;;;;;;4992796;28;20502;-85
2023/03/20 10:22:45;;;;;;;13.85;4.05;;;9.50;90.00;;;;;;4996234;28;20050;-86
2023/03/20 10:25:28;;;;;;;9.88;3.35;;;9.50;90.30;;;;;;4995450;28;20512;-84
2023/03/20 10:28:23;;;;;;;10.63;4.40;;;9.50;90.40;;;;;;4996052;28;20053;-85
2023/03/20 10:31:26;;;;;;;9.05;3.60;;;9.60;90.50;;;;;;4955405;28;20046;-86
2023/03/20 10:34:47;;;;;;;10.48;3.78;;;9.70;90.50;;;;;;5000060;28;20088;-86
2023/03/20 10:37:53;;;;;;;11.82;4.53;;;9.80;90.70;;;;;;4999425;28;20501;-85
2023/03/20 10:40:40;;;;;;;11.20;3.70;;;9.80;90.60;;;;;;4982299;28;20050;-86
2023/03/20 10:43:10;;;;;;;11.45;3.70;;;9.80;90.60;;;;;;4984913;28;20097;-85
2023/03/20 10:45:56;;;;;;;11.50;3.53;;;9.80;90.70;;;;;;5015312;28;20049;-85
2023/03/20 10:48:37;;;;;;;10.20;4.47;;;9.90;90.70;;;;;;4999883;28;20104;-84
2023/03/20 10:51:10;;;;;;;9.50;3.58;;;9.80;90.50;;;;;;4983564;28;20050;-85
2023/03/20 10:53:50;;;;;;;7.32;3.47;;;9.80;90.60;;;;;;4995065;28;20046;-85
2023/03/20 10:56:42;;;;;;;8.87;2.73;;;9.80;90.60;;;;;;4982852;28;20395;-83
2023/03/20 10:59:21;;;;;;;7.45;2.50;;;10.00;90.50;;;;;;4998608;28;20363;-83
2023/03/20 11:01:48;;;;;;;7.18;2.90;;;10.10;90.30;;;;;;4979531;28;20133;-83
2023/03/20 11:04:18;;;;;;;8.82;3.28;;;10.20;90.20;;;;;;4968169;28;20104;-85
2023/03/20 11:06:49;;;;;;;8.75;2.30;;;10.30;90.00;;;;;;4983128;28;20080;-86
2023/03/20 11:09:32;;;;;;;6.70;2.50;;;10.30;89.50;;;;;;4996423;28;20070;-86
2023/03/20 11:12:02;;;;;;;7.25;2.38;;;10.30;89.30;;;;;;4982898;28;20516;-85
2023/03/20 11:14:38;;;;;;;6.07;2.63;;;10.20;89.00;;;;;;4982829;28;20049;-85
2023/03/20 11:17:06;;;;;;;6.88;2.63;;;10.30;89.30;;;;;;4992942;28;20487;-85
2023/03/20 11:19:41;;;;;;;6.03;2.05;;;10.20;89.20;;;;;;4999808;28;20070;-85
2023/03/20 11:22:22;;;;;;;9.48;2.83;;;10.10;89.60;;;;;;4983042;28;20053;-86
2023/03/20 11:25:02;;;;;;;4.57;1.52;;;10.00;89.90;;;;;;5017972;28;20056;-85
2023/03/20 11:27:34;;;;;;;6.63;1.90;;;10.00;90.10;;;;;;4992564;28;20089;-87
2023/03/20 11:30:16;;;;;;;6.40;2.50;;;10.00;90.10;;;;;;5015157;28;20512;-86
2023/03/20 11:33:06;;;;;;;5.00;1.77;;;10.10;90.20;;;;;;4999286;28;20104;-91
2023/03/20 11:35:34;;;;;;;3.60;1.85;;;10.10;90.30;;;;;;5006498;28;20056;-85
2023/03/20 11:38:31;;;;;;;6.10;2.42;;;10.10;90.50;;;;;;4990286;28;20045;-87
2023/03/20 11:41:04;;;;;;;4.50;1.80;;;10.10;90.20;;;;;;5011242;28;20056;-86
2023/03/20 11:43:40;;;;;;;6.15;2.60;;;10.00;90.30;;;;;;4998257;28;20058;-87
2023/03/20 11:46:22;;;;;;;6.05;2.03;;;10.10;90.40;;;;;;5007906;28;20045;-86
2023/03/20 11:49:28;;;;;;;8.68;2.58;;;10.20;90.20;;;;;;5013195;28;20042;-89
2023/03/20 11:52:10;;;;;;;7.70;2.08;;;10.30;90.00;;;;;;4923368;29;20420;-89
2023/03/20 11:54:57;;;;;;;5.13;2.10;;;10.40;90.00;;;;;;4982473;28;20054;-90
2023/03/20 11:57:35;;;;;;;3.60;1.55;;;10.50;89.30;;;;;;5017350;28;20056;-91
2023/03/20 12:00:25;;;;;;;5.25;2.20;;;10.60;89.30;;;;;;5000114;28;20050;-90
2023/03/20 12:03:00;;;;;;;8.55;2.22;;;10.70;88.90;;;;;;5000223;28;20065;-89
2023/03/20 12:05:38;;;;;;;5.82;2.42;;;10.70;88.40;;;;;;4984602;28;20050;-93
2023/03/20 12:08:18;;;;;;;6.85;2.60;;;10.70;87.70;;;;;;4985242;28;20046;-89
2023/03/20 12:10:56;;;;;;;3.80;2.15;;;10.60;87.90;;;;;;5016340;28;20046;-90
2023/03/20 12:13:32;;;;;;;6.85;2.13;;;10.70;88.10;;;;;;4984802;28;20077;-92
2023/03/20 12:16:03;;;;;;;8.20;2.55;;;10.70;88.20;;;;;;5017218;28;20109;-95
2023/03/20 12:18:45;;;;;;;5.72;2.35;;;10.70;88.00;;;;;;4983750;28;20046;-94
2023/03/20 12:21:32;;;;;;;5.43;2.10;;;10.60;87.90;;;;;;5000990;28;20106;-93
2023/03/20 12:24:18;;;;;;;9.80;2.70;;;10.40;88.20;;;;;;5000805;28;20077;-92
2023/03/20 12:27:05;;;;;;;5.13;2.55;;;10.30;88.80;;;;;;5000076;28;20069;-91
2023/03/20 12:29:46;;;;;;;7.40;2.22;;;10.10;89.20;;;;;;4994014;28;20077;-93
2023/03/20 12:32:27;;;;;;;8.40;2.40;;;10.00;89.80;;;;;;4986211;28;20501;-92
2023/03/20 12:35:31;;;;;;;6.63;3.13;;;10.00;90.10;;;;;;5001420;28;20053;-94
2023/03/20 12:38:06;;;;;;;4.38;2.10;;;10.00;90.30;;;;;;5015847;28;20498;-93
2023/03/20 12:40:58;;;;;;;5.63;1.95;;;10.00;90.30;;;;;;4985368;28;20065;-91
2023/03/20 12:44:03;;;;;;;5.22;2.30;;;10.10;90.50;;;;;;4984616;28;20049;-85
2023/03/20 12:46:36;;;;;;;7.07;2.63;;;10.20;90.50;;;;;;4979136;28;20405;-90
2023/03/20 12:49:11;;;;;;;5.75;2.58;;;10.20;90.50;;;;;;4998647;28;20534;-88
2023/03/20 12:52:03;;;;;;;7.18;3.17;;;10.20;90.60;;;;;;4997410;28;20409;-84
2023/03/20 12:55:06;;;;;;;6.80;2.85;;;10.10;90.70;;;;;;4998733;28;20046;-88
2023/03/20 12:58:20;;;;;;;5.60;2.50;;;10.20;90.90;;;;;;4978609;28;20494;-84
2023/03/20 13:01:00;;;;;;;6.50;2.97;;;10.20;90.90;;;;;;4996977;28;20037;-84
2023/03/20 13:04:11;;;;;;;7.72;3.38;;;10.30;90.90;;;;;;4988195;28;20052;-83
2023/03/20 13:06:58;;;;;;;6.43;2.88;;;10.30;91.00;;;;;;4896649;29;20048;-84
2023/03/20 13:10:20;;;;;;;10.57;3.92;;;10.20;91.10;;;;;;4912574;29;20556;-82
2023/03/20 13:13:03;;;;;;;7.47;3.20;;;10.20;91.30;;;;;;4925272;29;20055;-83
2023/03/20 13:15:53;;;;;;;6.80;3.25;;;10.20;91.40;;;;;;4999467;28;20390;-82
2023/03/20 13:18:56;;;;;;;8.30;3.45;;;10.30;91.50;;;;;;4997067;28;20434;-85
2023/03/20 13:21:44;;;;;;;7.38;3.72;;;10.30;91.60;;;;;;4998401;28;20128;-84
2023/03/20 13:24:35;;;;;;;8.90;3.72;;;10.30;91.70;;;;;;4979717;28;20165;-86
2023/03/20 13:27:19;;;;;;;7.77;3.13;;;10.30;91.80;;;;;;4976576;28;20061;-86
2023/03/20 13:30:12;;;;;;;9.18;3.90;;;10.30;91.90;;;;;;4957747;28;20134;-84
2023/03/20 13:33:18;;;;;;;11.15;3.30;;;10.20;92.00;;;;;;4984046;28;20042;-79
2023/03/20 13:35:51;;;;;;;10.55;4.53;;;10.20;92.20;;;;;;4914922;28;20479;-84
2023/03/20 13:38:30;;;;;;;9.45;3.95;;;10.20;92.30;;;;;;4976911;28;20601;-83
2023/03/20 13:41:05;;;;;;;9.85;4.20;;;10.20;92.40;;;;;;4976681;28;20041;-85
2023/03/20 13:44:14;;;;;;;8.18;4.30;;;10.10;92.40;;;;;;4976686;28;20571;-87
2023/03/20 13:50:42;;;;;;;8.35;4.72;;;9.90;92.80;;;;;;4976441;28;20078;-82
2023/03/20 13:53:34;;;;;;;8.65;4.00;;;9.80;92.90;;;;;;4976600;28;20042;-86
2023/03/20 13:56:11;;;;;;;9.70;3.45;;;9.70;93.10;;;;;;4957410;28;20487;-85
2023/03/20 13:59:15;;;;;;;9.60;3.70;;;9.80;93.20;;;;;;4971208;28;20487;-84
2023/03/20 14:02:27;;;;;;;8.80;3.47;;;9.90;93.20;;;;;;4977826;28;20046;-86